Time;durP1;ratioP1;P1;durP2;ratioP2;P2;SDS_P1;SDS_P2;PMS_P1;PMS_P2;Temp;Humidity;BMP_temperature;BMP_pressure;BME280_temperature;BME280_humidity;BME280_pressure;Samples;Min_cycle;Max_cycle;Signal;HPM_P1;HPM_P2
2023/04/21 00:01:21;;;;;;;8.70;7.80;;;10.60;99.90;;;;;;6252952;28;20466;-64
2023/04/21 00:04:25;;;;;;;8.07;6.87;;;10.50;99.90;;;;;;6252830;28;20481;-65
2023/04/21 00:07:29;;;;;;;7.20;6.10;;;10.50;99.90;;;;;;6254359;28;21091;-64
2023/04/21 00:10:33;;;;;;;6.67;6.07;;;10.50;99.90;;;;;;6254334;28;20463;-64
2023/04/21 00:13:37;;;;;;;6.50;6.00;;;10.50;99.90;;;;;;6252228;28;20490;-64
2023/04/21 00:16:40;;;;;;;6.20;5.70;;;10.40;99.90;;;;;;6252771;28;20795;-64
2023/04/21 00:19:44;;;;;;;8.70;6.77;;;10.40;99.90;;;;;;6252940;28;20855;-65
2023/04/21 00:22:49;;;;;;;7.07;6.37;;;10.30;99.90;;;;;;6251322;28;20471;-64
2023/04/21 00:25:53;;;;;;;7.20;6.30;;;10.30;99.90;;;;;;6252248;28;20490;-64
2023/04/21 00:28:57;;;;;;;7.60;6.87;;;10.30;99.90;;;;;;6251623;28;20475;-63
2023/04/21 00:32:00;;;;;;;7.57;6.90;;;10.20;99.90;;;;;;6251679;28;20812;-64
2023/04/21 00:35:04;;;;;;;7.47;6.67;;;10.30;99.90;;;;;;6251065;28;20482;-65
2023/04/21 00:38:07;;;;;;;6.90;6.20;;;10.20;99.90;;;;;;6252617;28;20482;-65
2023/04/21 00:41:12;;;;;;;6.13;5.63;;;10.20;99.90;;;;;;6252099;28;20958;-63
2023/04/21 00:44:15;;;;;;;8.00;6.27;;;10.10;99.90;;;;;;6252218;28;20537;-62
2023/04/21 00:47:18;;;;;;;7.80;7.10;;;10.10;99.90;;;;;;6252143;28;20486;-62
2023/04/21 00:50:21;;;;;;;7.27;6.53;;;10.10;99.90;;;;;;6251790;28;20475;-62
2023/04/21 00:53:24;;;;;;;7.37;6.57;;;10.00;99.90;;;;;;6251310;28;20490;-61
2023/04/21 00:56:31;;;;;;;7.43;6.60;;;10.00;99.90;;;;;;6251645;28;20471;-61
2023/04/21 00:59:35;;;;;;;6.50;5.83;;;10.00;99.90;;;;;;6251840;28;20463;-61
2023/04/21 01:02:40;;;;;;;7.80;6.07;;;9.90;99.90;;;;;;6251781;28;20466;-61
2023/04/21 01:05:43;;;;;;;7.07;6.40;;;9.90;99.90;;;;;;6251101;28;21047;-62
2023/04/21 01:08:47;;;;;;;7.20;6.50;;;9.90;99.90;;;;;;6247180;28;20486;-62
2023/04/21 01:12:04;;;;;;;7.40;5.80;;;9.80;99.90;;;;;;6251488;28;20959;-62
2023/04/21 01:15:09;;;;;;;7.27;6.57;;;9.80;99.90;;;;;;6250869;28;20483;-62
2023/04/21 01:18:12;;;;;;;6.53;5.83;;;9.80;99.90;;;;;;6251401;28;20486;-62
2023/04/21 01:21:16;;;;;;;10.37;6.70;;;9.80;99.90;;;;;;6250911;28;20518;-62
2023/04/21 01:24:20;;;;;;;6.77;6.17;;;9.70;99.90;;;;;;6251214;28;20493;-62
2023/04/21 01:27:25;;;;;;;6.27;5.77;;;9.70;99.90;;;;;;6251096;28;20486;-62
2023/04/21 01:30:29;;;;;;;5.90;5.40;;;9.70;99.90;;;;;;6251659;28;20470;-62
2023/04/21 01:33:32;;;;;;;6.33;5.70;;;9.60;99.90;;;;;;6250844;28;20489;-62
2023/04/21 01:36:36;;;;;;;8.00;7.20;;;9.60;99.90;;;;;;6250762;28;20462;-62
2023/04/21 01:39:42;;;;;;;8.07;7.27;;;9.60;99.90;;;;;;6250611;28;20489;-62
2023/04/21 01:42:45;;;;;;;10.37;7.10;;;9.70;99.90;;;;;;6250698;28;20955;-62
2023/04/21 01:45:48;;;;;;;7.13;6.43;;;9.70;99.90;;;;;;6249822;28;20487;-62
2023/04/21 01:48:52;;;;;;;7.47;6.40;;;9.70;99.90;;;;;;6250405;28;20895;-62
2023/04/21 01:51:55;;;;;;;7.13;6.43;;;9.70;99.90;;;;;;6249650;28;20804;-62
2023/04/21 01:55:00;;;;;;;7.47;6.87;;;9.70;99.90;;;;;;6249909;28;20463;-62
2023/04/21 01:58:04;;;;;;;8.10;6.33;;;9.70;99.90;;;;;;6250705;28;20462;-62
2023/04/21 02:01:07;;;;;;;7.57;6.10;;;9.70;99.90;;;;;;6250411;28;20899;-62
2023/04/21 02:04:10;;;;;;;7.00;6.40;;;9.70;99.90;;;;;;6250277;28;20819;-62
2023/04/21 02:07:13;;;;;;;7.13;6.43;;;9.80;99.90;;;;;;6250193;28;20469;-62
2023/04/21 02:10:18;;;;;;;7.20;6.50;;;9.80;99.90;;;;;;6245557;28;20474;-62
2023/04/21 02:13:21;;;;;;;9.37;6.80;;;9.80;99.90;;;;;;6249450;28;20982;-62
2023/04/21 02:16:25;;;;;;;6.73;6.13;;;9.80;99.90;;;;;;6249983;28;20506;-62
2023/04/21 02:19:28;;;;;;;6.67;6.07;;;9.80;99.90;;;;;;6249704;28;20481;-62
2023/04/21 02:22:31;;;;;;;7.00;6.40;;;9.90;99.90;;;;;;6249939;28;20561;-62
2023/04/21 02:25:36;;;;;;;5.80;5.30;;;9.90;99.90;;;;;;6250164;28;20475;-62
2023/04/21 02:28:39;;;;;;;7.80;5.90;;;9.90;99.90;;;;;;6250147;28;20474;-62
2023/04/21 02:31:42;;;;;;;6.30;5.60;;;9.80;99.90;;;;;;6249852;28;20825;-62
2023/04/21 02:35:01;;;;;;;6.43;5.83;;;9.80;99.90;;;;;;6249646;28;20472;-62
2023/04/21 02:38:07;;;;;;;6.63;6.00;;;9.80;99.90;;;;;;6249723;28;20494;-62
2023/04/21 02:41:12;;;;;;;6.67;5.97;;;9.80;99.90;;;;;;6250085;28;20467;-62
2023/04/21 02:44:15;;;;;;;6.27;5.60;;;9.80;99.90;;;;;;6250459;28;20482;-62
2023/04/21 02:47:18;;;;;;;7.00;6.30;;;9.80;99.90;;;;;;6249312;28;20477;-62
2023/04/21 02:50:21;;;;;;;7.13;6.37;;;9.80;99.90;;;;;;6249103;28;20463;-62
2023/04/21 02:53:24;;;;;;;5.93;5.43;;;9.70;99.90;;;;;;6249353;28;20824;-62
2023/04/21 02:56:29;;;;;;;5.70;5.20;;;9.70;99.90;;;;;;6249883;28;20969;-61
2023/04/21 02:59:32;;;;;;;7.53;6.80;;;9.80;99.90;;;;;;6254462;28;20804;-61
2023/04/21 03:02:35;;;;;;;9.97;5.70;;;9.70;99.90;;;;;;6254321;28;20470;-61
2023/04/21 03:05:39;;;;;;;9.30;6.97;;;9.70;99.90;;;;;;6253984;28;20796;-61
2023/04/21 03:08:42;;;;;;;6.53;5.43;;;9.70;99.90;;;;;;6254155;28;20481;-61
2023/04/21 03:11:46;;;;;;;7.20;5.80;;;9.70;99.90;;;;;;6253900;28;20481;-61
2023/04/21 03:14:49;;;;;;;6.27;5.70;;;9.60;99.90;;;;;;6253819;28;20517;-61
2023/04/21 03:17:52;;;;;;;6.67;6.07;;;9.60;99.90;;;;;;6253714;28;21005;-61
2023/04/21 03:21:00;;;;;;;8.93;6.47;;;9.60;99.90;;;;;;6254006;28;20949;-61
2023/04/21 03:24:03;;;;;;;6.30;5.70;;;9.50;99.90;;;;;;6253665;28;20485;-61
2023/04/21 03:27:08;;;;;;;8.70;7.73;;;9.50;99.90;;;;;;6253706;28;20470;-61
2023/04/21 03:30:13;;;;;;;6.90;6.20;;;9.50;99.90;;;;;;6253736;28;20481;-61
2023/04/21 03:33:16;;;;;;;6.83;6.20;;;9.40;99.90;;;;;;6254575;28;20493;-62
2023/04/21 03:36:19;;;;;;;7.83;6.83;;;9.40;99.90;;;;;;6254771;28;20474;-62
2023/04/21 03:39:22;;;;;;;6.80;6.10;;;9.30;99.90;;;;;;6253637;28;20478;-62
2023/04/21 03:42:28;;;;;;;6.73;6.03;;;9.40;99.90;;;;;;6253676;28;20508;-61
2023/04/21 03:45:32;;;;;;;8.00;6.60;;;9.30;99.90;;;;;;6253574;28;20561;-61
2023/04/21 03:48:35;;;;;;;6.87;6.23;;;9.30;99.90;;;;;;6253684;28;20558;-61
2023/04/21 03:51:38;;;;;;;7.93;6.13;;;9.30;99.90;;;;;;6253393;28;20832;-62
2023/04/21 03:54:41;;;;;;;7.77;7.00;;;9.30;99.90;;;;;;6253229;28;20485;-63
2023/04/21 03:57:45;;;;;;;6.80;6.20;;;9.30;99.90;;;;;;6253225;28;20963;-62
2023/04/21 04:00:49;;;;;;;6.17;5.57;;;9.30;99.90;;;;;;6252963;28;20467;-62
2023/04/21 04:03:52;;;;;;;8.60;5.93;;;9.20;99.90;;;;;;6253353;28;20482;-63
2023/04/21 04:06:56;;;;;;;7.30;6.17;;;9.20;99.90;;;;;;6252456;28;20478;-62
2023/04/21 04:10:02;;;;;;;6.60;6.00;;;9.20;99.90;;;;;;6252992;28;20776;-62
2023/04/21 04:13:06;;;;;;;7.70;6.23;;;9.10;99.90;;;;;;6252696;28;20447;-63
2023/04/21 04:16:09;;;;;;;9.83;6.47;;;9.20;99.90;;;;;;6248755;28;20476;-62
2023/04/21 04:19:13;;;;;;;7.07;6.37;;;9.20;99.90;;;;;;6253002;28;20454;-61
2023/04/21 04:22:16;;;;;;;6.73;5.63;;;9.20;99.90;;;;;;6252275;28;20954;-61
2023/04/21 04:25:19;;;;;;;8.07;6.73;;;9.30;99.90;;;;;;6252561;28;20478;-61
2023/04/21 04:28:23;;;;;;;6.37;5.77;;;9.30;99.90;;;;;;6252932;28;20473;-62
2023/04/21 04:31:28;;;;;;;6.83;6.10;;;9.40;99.90;;;;;;6252857;28;20551;-61
2023/04/21 04:34:31;;;;;;;7.23;6.63;;;9.60;99.90;;;;;;6252438;28;20489;-61
2023/04/21 04:37:36;;;;;;;9.20;7.27;;;9.70;99.90;;;;;;6252263;28;20786;-62
2023/04/21 04:40:39;;;;;;;8.60;6.10;;;9.90;99.90;;;;;;6252104;28;20466;-61
2023/04/21 04:43:44;;;;;;;9.10;6.33;;;10.00;99.90;;;;;;6252147;28;20547;-61
2023/04/21 04:46:48;;;;;;;11.63;7.23;;;10.10;99.90;;;;;;6252296;28;20474;-62
2023/04/21 04:49:51;;;;;;;9.33;6.17;;;10.20;99.90;;;;;;6252029;28;20495;-62
2023/04/21 04:52:56;;;;;;;14.60;7.23;;;10.20;99.90;;;;;;6251788;28;20467;-63
2023/04/21 04:55:59;;;;;;;11.57;7.23;;;10.20;99.90;;;;;;6307321;23;20473;-63
2023/04/21 04:59:03;;;;;;;6.73;5.57;;;10.30;99.90;;;;;;6301581;28;20469;-63
2023/04/21 05:02:07;;;;;;;6.37;5.80;;;10.40;99.90;;;;;;6301120;28;21275;-63
2023/04/21 05:05:11;;;;;;;8.17;6.33;;;10.50;99.90;;;;;;6303280;28;20969;-63
2023/04/21 05:08:14;;;;;;;7.30;6.60;;;10.70;99.90;;;;;;6303883;28;20475;-63
2023/04/21 05:11:20;;;;;;;10.67;7.10;;;10.80;99.90;;;;;;6301940;28;20469;-64
2023/04/21 05:14:25;;;;;;;9.63;7.40;;;10.90;99.90;;;;;;6301173;28;20477;-64
2023/04/21 05:17:29;;;;;;;6.60;5.90;;;11.00;99.90;;;;;;6301219;28;20462;-64
2023/04/21 05:20:33;;;;;;;6.67;5.97;;;11.10;99.90;;;;;;6301439;28;20522;-64
2023/04/21 05:23:36;;;;;;;7.73;6.27;;;11.10;99.90;;;;;;6304759;28;20480;-64
2023/04/21 05:26:39;;;;;;;7.43;6.60;;;11.20;99.90;;;;;;6304122;28;20503;-64
2023/04/21 05:29:44;;;;;;;7.00;6.27;;;11.20;99.90;;;;;;6302419;28;20487;-64
2023/04/21 05:32:47;;;;;;;10.10;6.37;;;11.30;99.90;;;;;;6301336;28;20468;-65
2023/04/21 05:35:50;;;;;;;7.37;6.57;;;11.40;99.90;;;;;;6300606;28;20473;-65
2023/04/21 05:38:53;;;;;;;8.20;7.27;;;11.40;99.90;;;;;;6301838;28;20851;-65
2023/04/21 05:41:57;;;;;;;6.13;5.57;;;11.40;99.90;;;;;;6307111;28;20534;-65
2023/04/21 05:45:02;;;;;;;8.30;6.73;;;11.40;99.90;;;;;;6300973;28;20473;-65
2023/04/21 05:48:06;;;;;;;8.70;6.83;;;11.40;99.90;;;;;;6300720;28;20465;-66
2023/04/21 05:51:10;;;;;;;8.20;7.37;;;11.50;99.90;;;;;;6299995;28;20875;-65
2023/04/21 05:54:13;;;;;;;8.13;7.33;;;11.50;99.90;;;;;;6299645;28;20477;-65
2023/04/21 05:57:16;;;;;;;9.70;7.77;;;11.60;99.90;;;;;;6300294;28;20465;-65
2023/04/21 06:00:21;;;;;;;7.67;6.50;;;11.60;99.90;;;;;;6300211;28;20477;-65
2023/04/21 06:03:24;;;;;;;6.97;6.30;;;11.60;99.90;;;;;;6299768;28;20492;-65
2023/04/21 06:06:27;;;;;;;7.60;6.90;;;11.70;99.90;;;;;;6299420;28;20491;-64
2023/04/21 06:09:31;;;;;;;6.93;6.30;;;12.00;99.90;;;;;;6299631;28;20477;-64
2023/04/21 06:12:34;;;;;;;7.93;6.70;;;12.30;99.90;;;;;;6299568;28;20473;-64
2023/04/21 06:15:38;;;;;;;8.60;6.20;;;12.60;99.90;;;;;;6299507;28;20796;-64
2023/04/21 06:18:41;;;;;;;8.50;6.27;;;12.90;99.90;;;;;;6299479;28;20944;-64
2023/04/21 06:21:44;;;;;;;7.67;5.83;;;13.10;99.90;;;;;;6299472;28;20825;-65
2023/04/21 06:24:48;;;;;;;11.90;6.00;;;13.30;99.90;;;;;;6299556;28;20989;-64
2023/04/21 06:27:51;;;;;;;6.50;5.90;;;14.10;99.90;;;;;;6288099;28;20489;-65
2023/04/21 06:30:55;;;;;;;8.13;6.57;;;15.10;99.90;;;;;;6298907;28;20437;-64
2023/04/21 06:33:58;;;;;;;8.70;7.70;;;15.60;98.50;;;;;;6299854;28;20457;-64
2023/04/21 06:37:02;;;;;;;8.00;7.07;;;15.70;98.00;;;;;;6299122;28;20429;-64
2023/04/21 06:40:06;;;;;;;7.07;6.23;;;16.30;97.80;;;;;;6299934;28;20445;-64
2023/04/21 06:43:09;;;;;;;9.17;7.67;;;17.70;95.80;;;;;;6300183;28;20729;-64
2023/04/21 06:46:14;;;;;;;7.63;6.90;;;19.20;92.70;;;;;;6300427;28;20453;-65
2023/04/21 06:49:17;;;;;;;7.20;6.50;;;20.50;89.70;;;;;;6299640;28;20646;-64
2023/04/21 06:52:21;;;;;;;7.87;5.53;;;21.30;83.00;;;;;;6299453;28;20674;-64
2023/04/21 06:55:24;;;;;;;6.90;6.30;;;22.10;79.00;;;;;;6298891;28;20241;-65
2023/04/21 06:58:28;;;;;;;8.87;6.17;;;22.90;75.30;;;;;;6299791;28;20669;-65
2023/04/21 07:01:32;;;;;;;7.10;6.30;;;23.10;69.30;;;;;;6301046;28;20223;-65
2023/04/21 07:04:36;;;;;;;6.57;6.07;;;22.30;68.30;;;;;;6299763;28;20268;-65
2023/04/21 07:07:40;;;;;;;7.90;6.27;;;21.50;69.80;;;;;;6295548;28;20233;-63
2023/04/21 07:10:43;;;;;;;7.97;7.17;;;20.80;70.90;;;;;;6296802;28;20223;-64
2023/04/21 07:13:46;;;;;;;12.23;7.10;;;20.10;71.80;;;;;;6297873;28;20663;-64
2023/04/21 07:16:51;;;;;;;7.40;6.70;;;19.50;73.90;;;;;;6298438;28;20211;-64
2023/04/21 07:19:54;;;;;;;7.67;6.93;;;19.00;75.40;;;;;;6297490;28;20619;-66
2023/04/21 07:22:57;;;;;;;8.23;7.43;;;18.50;77.00;;;;;;6296607;28;20686;-65
2023/04/21 07:26:00;;;;;;;8.13;6.60;;;18.20;78.70;;;;;;6298469;28;20223;-64
2023/04/21 07:29:04;;;;;;;8.73;7.23;;;17.90;80.50;;;;;;6290671;28;20472;-65
2023/04/21 07:32:08;;;;;;;7.80;7.10;;;17.40;82.30;;;;;;6299772;28;20996;-64
2023/04/21 07:35:11;;;;;;;8.07;7.30;;;17.30;83.50;;;;;;6300373;28;20472;-65
2023/04/21 07:38:15;;;;;;;8.03;7.33;;;17.20;84.90;;;;;;6311557;28;20493;-64
2023/04/21 07:41:18;;;;;;;7.80;7.20;;;16.90;85.80;;;;;;6295416;28;20469;-64
2023/04/21 07:44:21;;;;;;;8.80;8.00;;;16.90;86.90;;;;;;6286994;28;20468;-64
2023/04/21 07:47:26;;;;;;;9.65;8.20;;;16.80;87.60;;;;;;6302747;28;20442;-67
2023/04/21 07:50:29;;;;;;;9.53;7.80;;;16.70;88.60;;;;;;6303726;28;20269;-64
2023/04/21 07:53:32;;;;;;;9.13;8.20;;;16.70;88.80;;;;;;6303140;28;20492;-65
2023/04/21 07:56:35;;;;;;;10.07;7.43;;;16.80;88.80;;;;;;6303456;28;20483;-64
2023/04/21 07:59:38;;;;;;;9.27;8.03;;;16.80;88.80;;;;;;6303285;28;20472;-66
2023/04/21 08:02:43;;;;;;;9.10;8.20;;;16.90;89.40;;;;;;6303185;28;20511;-64
2023/04/21 08:05:46;;;;;;;10.00;9.10;;;17.00;88.90;;;;;;6303577;28;20473;-64
2023/04/21 08:08:50;;;;;;;8.93;8.13;;;17.20;88.80;;;;;;6303433;28;20485;-66
2023/04/21 08:11:53;;;;;;;14.57;12.60;;;17.30;88.60;;;;;;6303388;28;20468;-66
2023/04/21 08:14:57;;;;;;;9.80;8.90;;;17.40;88.20;;;;;;6302723;28;20827;-66
2023/04/21 08:18:01;;;;;;;12.00;9.30;;;17.50;87.30;;;;;;6302811;28;20484;-64
2023/04/21 08:21:05;;;;;;;9.43;8.60;;;17.60;86.80;;;;;;6303027;28;21050;-64
2023/04/21 08:24:08;;;;;;;11.60;10.47;;;17.60;86.40;;;;;;6302938;28;20473;-64
2023/04/21 08:27:11;;;;;;;10.23;9.23;;;17.60;86.10;;;;;;6302664;28;20473;-64
2023/04/21 08:30:15;;;;;;;11.77;10.67;;;17.60;85.80;;;;;;6302657;28;20562;-62
2023/04/21 08:33:20;;;;;;;11.17;9.50;;;17.80;85.40;;;;;;6298019;28;20493;-62
2023/04/21 08:36:23;;;;;;;9.43;8.63;;;18.20;84.90;;;;;;6301789;28;20520;-63
2023/04/21 08:39:32;;;;;;;10.03;9.13;;;18.60;82.90;;;;;;6301996;28;20472;-64
2023/04/21 08:42:35;;;;;;;10.43;9.43;;;18.70;81.80;;;;;;6302095;28;20238;-66
2023/04/21 08:45:40;;;;;;;10.77;8.70;;;19.00;80.80;;;;;;6302783;28;20527;-64
2023/04/21 08:48:46;;;;;;;9.50;8.60;;;19.50;79.80;;;;;;6302340;28;20317;-64
2023/04/21 08:51:50;;;;;;;11.70;9.77;;;20.20;77.30;;;;;;6301690;28;20218;-63
2023/04/21 08:54:54;;;;;;;15.07;10.40;;;20.60;75.10;;;;;;6299986;28;20227;-63
2023/04/21 08:57:57;;;;;;;9.70;8.90;;;20.80;72.90;;;;;;6300641;28;20526;-64
2023/04/21 09:01:01;;;;;;;10.47;9.43;;;21.00;72.40;;;;;;6301683;28;20202;-64
2023/04/21 09:04:19;;;;;;;10.47;9.53;;;21.30;71.20;;;;;;6300324;28;20730;-63
2023/04/21 09:07:33;;;;;;;9.77;8.93;;;21.40;69.90;;;;;;6301803;28;20302;-65
2023/04/21 09:10:45;;;;;;;9.47;8.50;;;21.40;68.60;;;;;;6301536;28;20231;-64
2023/04/21 09:13:48;;;;;;;10.00;8.53;;;21.10;69.30;;;;;;6301645;28;20242;-62
2023/04/21 09:17:00;;;;;;;9.67;8.87;;;21.00;70.70;;;;;;6297661;28;20321;-62
2023/04/21 09:20:15;;;;;;;8.80;7.97;;;20.80;69.40;;;;;;6301707;28;20759;-65
2023/04/21 09:23:20;;;;;;;9.63;8.83;;;20.50;69.80;;;;;;6301935;28;20231;-64
2023/04/21 09:26:23;;;;;;;8.23;7.43;;;20.10;70.90;;;;;;6301685;28;20226;-64
2023/04/21 09:29:27;;;;;;;9.80;8.90;;;19.90;72.20;;;;;;6301243;28;20257;-65
2023/04/21 09:32:30;;;;;;;9.90;9.00;;;19.70;73.50;;;;;;6300881;28;20563;-63
2023/04/21 09:35:36;;;;;;;8.90;7.60;;;19.60;74.00;;;;;;6301718;28;20227;-64
2023/04/21 09:38:39;;;;;;;9.33;8.53;;;20.00;73.50;;;;;;6300901;28;20680;-66
2023/04/21 09:41:44;;;;;;;9.90;9.00;;;20.20;72.40;;;;;;6301016;28;20233;-63
2023/04/21 09:44:47;;;;;;;11.63;10.57;;;20.20;71.60;;;;;;6300856;28;20238;-64
2023/04/21 09:48:02;;;;;;;11.80;9.10;;;20.00;71.80;;;;;;6300613;28;20379;-63
2023/04/21 09:51:07;;;;;;;15.20;10.10;;;20.00;72.20;;;;;;6300937;28;20250;-65
2023/04/21 09:54:19;;;;;;;10.43;9.53;;;19.80;72.90;;;;;;6300455;28;20242;-64
2023/04/21 09:57:26;;;;;;;13.13;9.80;;;19.60;73.70;;;;;;6299972;28;20234;-63
2023/04/21 10:00:30;;;;;;;10.87;9.93;;;19.50;74.80;;;;;;6300155;28;20663;-65
2023/04/21 10:03:33;;;;;;;11.70;10.50;;;19.60;76.80;;;;;;6299787;28;20250;-63
2023/04/21 10:06:38;;;;;;;11.40;10.20;;;19.40;77.70;;;;;;6299100;28;20564;-64
2023/04/21 10:09:46;;;;;;;11.70;10.60;;;19.20;78.40;;;;;;6299273;28;20227;-62
2023/04/21 10:12:50;;;;;;;12.33;11.13;;;19.10;78.80;;;;;;6299341;28;20234;-62
2023/04/21 10:16:02;;;;;;;11.97;10.77;;;18.90;80.00;;;;;;6299050;28;20231;-61
2023/04/21 10:19:24;;;;;;;10.53;9.43;;;18.90;81.40;;;;;;6299157;28;20248;-64
2023/04/21 10:22:30;;;;;;;11.70;10.60;;;19.10;78.90;;;;;;6299811;28;20312;-61
2023/04/21 10:25:33;;;;;;;9.13;8.33;;;18.90;79.50;;;;;;6301577;28;20230;-63
2023/04/21 10:28:48;;;;;;;15.77;8.87;;;18.90;78.40;;;;;;6300524;28;20250;-63
2023/04/21 10:31:53;;;;;;;11.50;8.20;;;19.10;76.80;;;;;;6299219;28;20579;-63
2023/04/21 10:34:57;;;;;;;8.93;8.13;;;19.10;76.40;;;;;;6299450;28;20243;-62
2023/04/21 10:38:01;;;;;;;9.30;7.27;;;19.30;76.10;;;;;;6299452;28;20230;-64
2023/04/21 10:41:26;;;;;;;8.50;7.70;;;19.50;75.90;;;;;;6289740;28;20233;-62
2023/04/21 10:44:29;;;;;;;12.40;8.50;;;19.70;74.10;;;;;;6299246;28;20249;-65
2023/04/21 10:47:37;;;;;;;9.47;6.90;;;20.00;73.00;;;;;;6299112;28;20277;-63
2023/04/21 10:50:40;;;;;;;7.67;6.97;;;20.50;70.90;;;;;;6299016;28;20245;-65
2023/04/21 10:53:45;;;;;;;10.27;7.50;;;20.80;68.90;;;;;;6299662;28;20249;-64
2023/04/21 10:56:49;;;;;;;8.73;7.83;;;20.90;67.70;;;;;;6299427;28;20226;-62
2023/04/21 10:59:53;;;;;;;8.23;7.30;;;21.30;67.00;;;;;;6299308;28;20238;-63
2023/04/21 11:02:57;;;;;;;8.47;7.37;;;21.50;64.60;;;;;;6299367;28;20226;-66
2023/04/21 11:06:14;;;;;;;8.80;7.97;;;21.60;63.70;;;;;;6299019;28;20231;-65
2023/04/21 11:09:19;;;;;;;10.80;7.00;;;21.50;63.10;;;;;;6274350;28;20235;-65
2023/04/21 11:12:22;;;;;;;8.33;7.17;;;21.70;62.70;;;;;;6273897;28;20262;-66
2023/04/21 11:15:25;;;;;;;7.50;6.80;;;21.80;62.60;;;;;;6285441;28;20230;-63
2023/04/21 11:18:38;;;;;;;8.97;7.30;;;22.00;62.80;;;;;;6301948;28;20720;-64
2023/04/21 11:21:41;;;;;;;8.87;8.03;;;22.10;61.70;;;;;;6307667;28;20234;-65
2023/04/21 11:24:46;;;;;;;8.10;7.40;;;22.20;61.70;;;;;;6305101;28;20234;-63
2023/04/21 11:27:58;;;;;;;8.30;7.37;;;22.20;60.10;;;;;;6305534;28;20237;-64
2023/04/21 11:31:02;;;;;;;8.20;7.50;;;22.50;60.10;;;;;;6306152;28;20763;-64
2023/04/21 11:34:06;;;;;;;10.27;7.60;;;22.40;60.00;;;;;;6304158;28;20222;-63
2023/04/21 11:37:10;;;;;;;10.13;8.53;;;22.20;60.10;;;;;;6304906;28;20229;-66
2023/04/21 11:40:14;;;;;;;7.77;6.97;;;22.50;59.50;;;;;;6305710;28;20230;-64
2023/04/21 11:43:17;;;;;;;8.83;8.00;;;22.90;59.40;;;;;;6302112;28;20242;-64
2023/04/21 11:46:25;;;;;;;7.97;7.00;;;23.20;58.40;;;;;;6303389;28;20700;-62
2023/04/21 11:49:29;;;;;;;9.20;8.40;;;23.60;58.00;;;;;;6303243;28;20245;-62
2023/04/21 11:52:36;;;;;;;8.53;7.30;;;23.70;55.70;;;;;;6302913;28;20555;-64
2023/04/21 11:55:45;;;;;;;8.13;7.40;;;23.40;55.80;;;;;;6303504;28;20245;-64
2023/04/21 11:58:51;;;;;;;7.70;6.00;;;23.50;55.90;;;;;;6302860;28;20613;-63
2023/04/21 12:01:55;;;;;;;9.93;7.93;;;23.60;55.50;;;;;;6302222;28;20227;-64
2023/04/21 12:05:03;;;;;;;7.97;7.27;;;23.70;55.50;;;;;;6302547;28;20237;-64
2023/04/21 12:08:06;;;;;;;7.30;6.70;;;22.70;56.70;;;;;;6302104;28;20237;-65
2023/04/21 12:11:11;;;;;;;8.10;7.30;;;21.70;58.40;;;;;;6302187;28;20235;-65
2023/04/21 12:14:15;;;;;;;7.37;6.70;;;21.30;58.90;;;;;;6301640;28;20234;-63
2023/04/21 12:17:19;;;;;;;8.40;6.83;;;21.20;58.70;;;;;;6301993;28;20234;-65
2023/04/21 12:20:24;;;;;;;7.30;6.60;;;20.90;59.30;;;;;;6302006;28;20238;-63
2023/04/21 12:23:28;;;;;;;6.20;5.17;;;20.60;58.50;;;;;;6302160;28;20265;-66
2023/04/21 12:26:32;;;;;;;7.07;5.30;;;20.20;58.70;;;;;;6302037;28;20249;-63
2023/04/21 12:29:36;;;;;;;6.93;6.23;;;19.80;57.50;;;;;;6301563;28;20238;-67
2023/04/21 12:32:40;;;;;;;9.67;6.97;;;19.60;58.10;;;;;;6301873;28;20246;-64
2023/04/21 12:35:43;;;;;;;7.30;6.70;;;19.50;59.20;;;;;;6301392;28;20364;-66
2023/04/21 12:38:46;;;;;;;6.77;5.60;;;19.10;59.60;;;;;;6302040;28;20565;-67
2023/04/21 12:41:51;;;;;;;7.10;6.40;;;18.70;62.90;;;;;;6301695;28;20235;-65
2023/04/21 12:44:55;;;;;;;6.90;5.93;;;18.50;65.00;;;;;;6301547;28;20227;-65
2023/04/21 12:47:59;;;;;;;7.47;6.63;;;18.20;69.00;;;;;;6301237;28;20227;-65
2023/04/21 12:51:03;;;;;;;7.80;6.10;;;17.90;73.50;;;;;;6301350;28;20227;-65
2023/04/21 12:54:06;;;;;;;6.63;6.13;;;17.60;76.50;;;;;;6300971;28;20477;-65
2023/04/21 12:57:11;;;;;;;5.70;5.20;;;17.10;81.40;;;;;;6301314;28;20476;-68
2023/04/21 13:00:15;;;;;;;6.00;5.50;;;16.40;83.70;;;;;;6300976;28;20480;-65
2023/04/21 13:03:18;;;;;;;6.93;6.27;;;15.90;85.90;;;;;;6298899;28;20477;-68
2023/04/21 13:06:21;;;;;;;6.73;6.07;;;15.70;86.40;;;;;;6300239;28;20544;-66
2023/04/21 13:09:25;;;;;;;8.27;6.63;;;15.40;87.10;;;;;;6300923;28;20483;-66
2023/04/21 13:12:29;;;;;;;6.00;5.50;;;15.00;87.20;;;;;;6300982;28;20480;-66
2023/04/21 13:15:32;;;;;;;5.80;5.30;;;14.70;90.30;;;;;;6293008;28;20480;-66
2023/04/21 13:18:36;;;;;;;4.57;4.10;;;14.40;91.20;;;;;;6299847;28;20469;-67
2023/04/21 13:21:40;;;;;;;4.70;4.30;;;14.40;90.70;;;;;;6301305;28;20464;-67
2023/04/21 13:24:43;;;;;;;5.20;4.77;;;14.60;91.20;;;;;;6307545;28;20806;-65
2023/04/21 13:27:47;;;;;;;7.93;4.73;;;14.80;91.50;;;;;;6303705;28;20469;-67
2023/04/21 13:30:52;;;;;;;4.80;4.47;;;15.00;90.80;;;;;;6299665;28;20477;-65
2023/04/21 13:33:55;;;;;;;5.30;4.40;;;15.30;91.30;;;;;;6300118;28;20457;-66
2023/04/21 13:36:58;;;;;;;5.30;4.80;;;15.50;91.80;;;;;;6299859;28;20440;-66
2023/04/21 13:40:02;;;;;;;5.30;4.80;;;15.90;92.80;;;;;;6300026;28;20449;-66
2023/04/21 13:43:06;;;;;;;6.27;5.47;;;16.20;92.60;;;;;;6300234;28;20792;-66
2023/04/21 13:46:09;;;;;;;4.57;4.17;;;16.60;93.70;;;;;;6300309;28;20445;-66
2023/04/21 13:49:12;;;;;;;5.73;5.13;;;16.90;92.90;;;;;;6299831;28;20468;-65
2023/04/21 13:52:16;;;;;;;4.97;4.57;;;17.10;92.30;;;;;;6299696;28;20522;-65
2023/04/21 13:55:20;;;;;;;5.60;5.07;;;17.20;91.30;;;;;;6299490;28;20475;-65
2023/04/21 13:58:24;;;;;;;4.70;4.30;;;17.40;92.20;;;;;;6299831;28;20472;-65
2023/04/21 14:01:28;;;;;;;5.17;4.67;;;17.60;91.90;;;;;;6299977;28;20465;-65
2023/04/21 14:04:31;;;;;;;5.60;5.10;;;17.90;91.10;;;;;;6299856;28;20497;-65
2023/04/21 14:07:35;;;;;;;5.33;4.83;;;18.10;91.20;;;;;;6299360;28;20540;-65
2023/04/21 14:10:38;;;;;;;4.50;3.87;;;18.10;90.20;;;;;;6299599;28;20807;-65
2023/04/21 14:13:43;;;;;;;5.27;4.77;;;18.10;87.60;;;;;;6299210;28;20812;-66
2023/04/21 14:17:07;;;;;;;5.60;5.10;;;18.00;88.60;;;;;;6297579;28;21004;-66
2023/04/21 14:20:11;;;;;;;6.17;5.50;;;17.90;91.40;;;;;;6295837;28;20463;-65
2023/04/21 14:23:14;;;;;;;6.77;6.10;;;17.80;91.40;;;;;;6298453;28;20477;-68
2023/04/21 14:26:17;;;;;;;7.97;7.27;;;17.90;91.50;;;;;;6299514;28;20473;-66
2023/04/21 14:29:22;;;;;;;7.00;6.47;;;17.90;91.50;;;;;;6299577;28;20496;-65
2023/04/21 14:32:25;;;;;;;6.30;5.80;;;17.90;91.90;;;;;;6300761;28;20242;-65
2023/04/21 14:35:29;;;;;;;6.27;5.77;;;17.90;91.70;;;;;;6305099;28;20988;-66
2023/04/21 14:38:34;;;;;;;5.53;5.03;;;17.90;92.10;;;;;;6305894;28;20473;-67
2023/04/21 14:41:37;;;;;;;7.10;6.50;;;18.00;92.20;;;;;;6300823;28;20458;-66
2023/04/21 14:44:42;;;;;;;5.90;5.40;;;18.10;92.50;;;;;;6299345;28;20493;-66
2023/04/21 14:47:45;;;;;;;6.47;5.97;;;18.20;91.60;;;;;;6299337;28;20461;-67
2023/04/21 14:50:48;;;;;;;5.70;5.17;;;18.20;90.70;;;;;;6299045;28;21032;-66
2023/04/21 14:53:51;;;;;;;5.27;4.77;;;18.30;90.10;;;;;;6301590;28;20484;-67
2023/04/21 14:56:56;;;;;;;9.27;5.57;;;18.40;87.60;;;;;;6304198;28;20269;-67
2023/04/21 15:00:22;;;;;;;5.13;4.63;;;18.40;86.10;;;;;;6304387;28;20323;-68
2023/04/21 15:03:25;;;;;;;5.37;4.87;;;18.40;85.10;;;;;;6303989;28;20306;-66
2023/04/21 15:06:28;;;;;;;4.40;4.00;;;18.50;84.80;;;;;;6303146;28;20225;-64
2023/04/21 15:09:32;;;;;;;5.97;4.47;;;18.50;83.50;;;;;;6304067;28;20226;-67
2023/04/21 15:12:35;;;;;;;4.80;4.40;;;18.50;82.80;;;;;;6304052;28;20322;-67
2023/04/21 15:15:40;;;;;;;4.10;3.73;;;18.50;83.60;;;;;;6303763;28;20254;-67
2023/04/21 15:18:43;;;;;;;4.23;3.90;;;18.50;81.10;;;;;;6303826;28;20690;-67
2023/04/21 15:21:49;;;;;;;4.77;4.30;;;18.50;79.70;;;;;;6303480;28;20229;-66
2023/04/21 15:24:52;;;;;;;5.87;4.10;;;18.50;80.40;;;;;;6301315;28;20226;-68
2023/04/21 15:27:56;;;;;;;6.47;4.50;;;18.40;80.30;;;;;;6303719;28;20219;-68
2023/04/21 15:31:01;;;;;;;5.87;4.40;;;18.40;81.30;;;;;;6303511;28;20238;-67
2023/04/21 15:34:04;;;;;;;8.53;5.57;;;18.30;79.80;;;;;;6303161;28;20276;-69
2023/04/21 15:37:07;;;;;;;4.60;4.20;;;18.30;80.20;;;;;;6303194;28;20532;-67
2023/04/21 15:40:11;;;;;;;6.00;3.90;;;18.30;80.90;;;;;;6302764;28;20520;-67
2023/04/21 15:43:14;;;;;;;5.10;4.53;;;18.20;80.20;;;;;;6301671;28;20689;-68
2023/04/21 15:46:19;;;;;;;5.10;4.60;;;18.10;80.60;;;;;;6302018;28;20242;-68
2023/04/21 15:49:22;;;;;;;5.10;4.70;;;18.10;80.50;;;;;;6302442;28;20682;-68
2023/04/21 15:52:28;;;;;;;7.80;4.80;;;18.00;80.40;;;;;;6301897;28;20527;-68
2023/04/21 15:55:32;;;;;;;5.60;5.07;;;18.00;81.10;;;;;;6301311;28;20485;-67
2023/04/21 15:58:35;;;;;;;7.70;5.30;;;17.90;81.60;;;;;;6301525;28;20476;-67
2023/04/21 16:01:40;;;;;;;5.00;4.50;;;17.80;81.60;;;;;;6302014;28;20461;-67